aviador You're here:

YSCB Decoded Metar

CANBERRA in AUSTRALIA
Report Time2017-10-24 02:00:00
UTC Time2017-10-24 02:23:12
Flight Rules vfr VFR
Wind310° at 14 kt
W.Decomp.*RWY 30: 14.0 kt HW 0.5 kt LCW
RWY 35: 8.6 kt HW 11 kt LCW
W.Rank310° ranks 3
Current wind is above 310° avg. (10.5)
Visibility9999 m
Phenomena:N/A
Clouds:Few 045 Hf
Broken 190 Hf
Expected CloudBase > 6,400 ft AGL from Temp-Dew spread
Ceiling19,000 ft
Temp21°C (ISA +10)
Dew Point05°C (35% RH)
AAT14.8°C
QNH1018 hPa
Density Alt2,982 ft
Elevation1,893 ft
Report Wrong Elevation
Raw Report
YSCB 240200Z 31014KT 9999 FEW045 BKN190 21/05 Q1018 FM0200
30015G25KT CAVOK=

Extra information for YSCB:More info

Metar Taf Metar & Taf Last 4 Metars F.Rules Stats Wind Profile Meteogram Temp Stats Airport Information Weather charts Add Link Nearby VenuesMetar ALERT Operation Metar Decoded Social comments